Nearby METAR Reports

 

KSJC - San Jose, California, USA
Distance from station: NE 14km
Updated: 25/11/2020 13:28
Partly cloudy
Partly cloudy
 Wind from S
Wind: S 6 km/h
Temperature: 9°C
Dew Point: 6°C
Humidity: 82%
Barometer: 1021.7 hPa
Clouds: Partly cloudy
Visibility: 16 km
Cloud details: Partly cloudy 518 m
2020/11/25 11:28 KSJC 251128Z AUTO 18003KT 10SM SCT017 09/06 A3017 RMK AO2 T00890061
KNUQ - Moffett Nas/Mtn, California, USA
Distance from station: N 14km
Updated: 15/11/2020 12:00
NOT Current
Clear
Clear
 Wind from calm
Wind: Calm
Temperature: 6°C
Dew Point: 5°C
Humidity: 93%
Barometer: 1025.4 hPa
Clouds: Clear
Visibility: 16 km
2020/11/15 10:00 KNUQ 151000Z AUTO 00000KT 10SM CLR 06/05 A3028 RMK AO2
 
KPAO - Palo Alto, California, USA
Distance from station: NNW 23km
Updated: 25/11/2020 04:47
NOT Current
Clear
Clear
 Wind from NNW
Wind: NNW 11 km/h
Temperature: 11°C
Dew Point: 8°C
Humidity: 82%
Barometer: 1019.6 hPa
Clouds: Clear
Visibility: 16 km
2020/11/25 02:47 KPAO 250247Z 33006KT 10SM SKC 11/08 A3011 RMK LAST
KRHV - San Jose/Reid, California, USA
Distance from station: ENE 19km
Updated: 25/11/2020 07:50
NOT Current
Clear
Clear
 Wind from calm
Wind: Calm
Temperature: 9°C
Dew Point: 7°C
Humidity: 87%
Barometer: 1021 hPa
Clouds: Clear
Visibility: 16 km
2020/11/25 05:50 KRHV 250550Z 00000KT 10SM SKC 09/07 A3015
 
KOAK - Oakland, California, USA
Distance from station: NNW 50km
Updated: 25/11/2020 12:53
Haze, Few clouds
Haze, Few clouds
 Wind from calm
Wind: Calm
Temperature: 9°C
Dew Point: 6°C
Humidity: 82%
Barometer: 1021.7 hPa
Summary: Haze
Clouds: Few Clouds
Visibility: 8 km
Cloud details: Few Clouds 396 m
2020/11/25 10:53 KOAK 251053Z 00000KT 5SM HZ FEW013 09/06 A3017 RMK AO2 SLP217 T00890061
KSQL - San Carlos Airpo, California, USA
Distance from station: NW 34km
Updated: 25/11/2020 13:15
Few Clouds
Few Clouds
 Wind from SE
Wind: SE 7 km/h
Temperature: 8°C
Wind Chill: 7°C
Dew Point: 7°C
Humidity: 93%
Barometer: 1022 hPa
Clouds: Few Clouds
Visibility: 16 km
Cloud details: Few Clouds 1158 m
2020/11/25 11:15 KSQL 251115Z AUTO 13004KT 10SM FEW038 08/07 A3018 RMK AO2
 
KSFO - San Francisco, California, USA
Distance from station: NW 49km
Updated: 25/11/2020 12:56
Partly cloudy
Partly cloudy
 Wind from calm
Wind: Calm
Temperature: 11°C
Dew Point: 9°C
Humidity: 88%
Barometer: 1021.3 hPa
Clouds: Partly cloudy
Visibility: 16 km
Cloud details: Few Clouds 183 m
Partly cloudy 244 m
2020/11/25 10:56 KSFO 251056Z 00000KT 10SM FEW006 SCT008 11/09 A3016 RMK AO2 SLP213 T01110094 $
KE16 - San Martin, California, USA
Distance from station: ESE 43km
Updated: 25/11/2020 13:15
Partly cloudy
Partly cloudy
 Wind from calm
Wind: Calm
Temperature: 4°C
Dew Point: 3°C
Humidity: 93%
Barometer: 1022.4 hPa
Clouds: Partly cloudy
Visibility: 16 km
Cloud details: Partly cloudy 579 m
2020/11/25 11:15 KE16 251115Z AUTO 00000KT 10SM SCT019 04/03 A3019 RMK AO2
 
KWVI - Watsonville, California, USA
Distance from station: SSE 44km
Updated: 25/11/2020 12:53
Overcast
Overcast
 Wind from ENE
Wind: ENE 6 km/h
Temperature: 10°C
Dew Point: 8°C
Humidity: 88%
Barometer: 1022 hPa
Clouds: Overcast
Visibility: 16 km
Cloud details: Overcast 335 m
2020/11/25 10:53 KWVI 251053Z AUTO 07003KT 10SM OVC011 10/08 A3018 RMK AO2 SLP220 T01000083
KHAF - Half Moon Bay, California, USA
Distance from station: WNW 50km
Updated: 25/11/2020 13:15
Overcast
Overcast
 Wind from NNW
Wind: NNW 11 km/h
Temperature: 11°C
Dew Point: 10°C
Humidity: 94%
Barometer: 1022 hPa
Clouds: Overcast
Visibility: 11 km
Cloud details: Mostly cloudy 244 m
Overcast 610 m
2020/11/25 11:15 KHAF 251115Z AUTO 33006KT 7SM BKN008 OVC020 11/10 A3018 RMK AO2
 
KHWD - Hayward, California, USA
Distance from station: N 44km
Updated: 25/11/2020 12:54
Overcast
Overcast
 Wind from SE
Wind: SE 9 km/h
Temperature: 12°C
Dew Point: 8°C
Humidity: 77%
Barometer: 1021.3 hPa
Clouds: Overcast
Visibility: 16 km
Cloud details: Overcast 366 m
2020/11/25 10:54 KHWD 251054Z 13005KT 10SM OVC012 12/08 A3016 RMK AO2 SLP223 T01170083
KLVK - Livermore, California, USA
Distance from station: NNE 51km
Updated: 25/11/2020 13:16
Partly cloudy
Partly cloudy
 Wind from calm
Wind: Calm
Temperature: 9°C
Dew Point: 7°C
Humidity: 87%
Barometer: 1021 hPa
Clouds: Partly cloudy
Visibility: 16 km
Cloud details: Partly cloudy 488 m
2020/11/25 11:16 KLVK 251116Z AUTO 00000KT 10SM SCT016 09/07 A3015 RMK AO2 T00890072